Terminal Aerodrome Forecast
Issued by NWS

Home | Current Version | Previous Version | Text Only | Print | Product List | Glossary On
Versions: 1 2 3 4 5 6 7 8 9 10 11 12 13 14 15 16
000
FTUS46 KSTO 251100
TAFSAC
TAF
KSAC 251120Z 2512/2612 20015KT P6SM OVC010
     FM251900 20008KT P6SM SCT015
     FM252200 21013KT P6SM SCT250=

USA.gov is the U.S. government's official web portal to all federal, state and local government web resources and services.